Time;durP1;ratioP1;P1;durP2;ratioP2;P2;SDS_P1;SDS_P2;PMS_P1;PMS_P2;Temp;Humidity;BMP_temperature;BMP_pressure;BME280_temperature;BME280_humidity;BME280_pressure;Samples;Min_cycle;Max_cycle;Signal;HPM_P1;HPM_P2
2021/06/22 00:01:29;;;;;;;24.88;15.95;;;13.70;99.90;;;;;;5046888;28;20487;-69
2021/06/22 00:03:55;;;;;;;18.50;11.50;;;13.50;99.90;;;;;;5043775;28;21010;-69
2021/06/22 00:06:20;;;;;;;21.48;8.10;;;13.50;99.90;;;;;;5041547;28;20031;-70
2021/06/22 00:08:46;;;;;;;14.85;7.75;;;13.40;99.90;;;;;;5044333;28;20028;-69
2021/06/22 00:11:11;;;;;;;18.02;9.40;;;13.50;99.90;;;;;;5047614;28;20416;-69
2021/06/22 00:13:37;;;;;;;20.35;9.98;;;13.50;99.90;;;;;;5042146;28;20473;-68
2021/06/22 00:16:04;;;;;;;22.73;12.32;;;13.60;99.90;;;;;;5043382;28;20379;-69
2021/06/22 00:18:29;;;;;;;22.33;13.40;;;13.50;99.90;;;;;;5043076;28;20111;-68
2021/06/22 00:20:55;;;;;;;26.98;14.82;;;13.40;99.90;;;;;;5044932;28;20522;-69
2021/06/22 00:23:21;;;;;;;24.60;13.25;;;13.40;99.90;;;;;;5044843;28;22141;-68
2021/06/22 00:25:46;;;;;;;23.85;9.95;;;13.40;99.90;;;;;;5045451;28;20082;-68
2021/06/22 00:28:12;;;;;;;10.40;5.85;;;13.30;99.90;;;;;;5046795;28;20063;-68
2021/06/22 00:30:37;;;;;;;32.22;7.57;;;13.30;99.90;;;;;;5039760;28;20030;-69
2021/06/22 00:33:04;;;;;;;12.77;5.80;;;13.30;99.90;;;;;;5035296;28;20021;-70
2021/06/22 00:35:29;;;;;;;16.85;6.13;;;13.40;99.90;;;;;;5041549;28;20021;-69
2021/06/22 00:37:55;;;;;;;24.30;7.03;;;13.40;99.90;;;;;;5039778;28;20032;-68
2021/06/22 00:40:21;;;;;;;13.30;5.88;;;13.50;99.90;;;;;;5038769;28;20018;-69
2021/06/22 00:42:47;;;;;;;9.52;6.10;;;13.40;99.90;;;;;;5036769;28;20111;-68
2021/06/22 00:45:15;;;;;;;14.25;5.65;;;13.40;99.90;;;;;;5038159;28;20013;-69
2021/06/22 00:47:41;;;;;;;19.73;5.80;;;13.30;99.90;;;;;;5032403;28;20013;-68
2021/06/22 00:50:08;;;;;;;26.65;6.85;;;13.30;99.90;;;;;;5040316;28;20028;-69
2021/06/22 00:52:36;;;;;;;15.02;6.57;;;13.30;99.90;;;;;;5036061;28;20041;-68
2021/06/22 00:55:11;;;;;;;13.43;5.85;;;13.30;99.90;;;;;;5033309;28;20029;-70
2021/06/22 00:57:37;;;;;;;16.77;6.32;;;13.40;99.90;;;;;;5028732;28;20029;-69
2021/06/22 01:00:08;;;;;;;15.50;6.55;;;13.40;99.90;;;;;;5036898;28;20025;-68
2021/06/22 01:02:34;;;;;;;12.20;6.55;;;13.30;99.90;;;;;;5042415;28;20052;-68
2021/06/22 01:05:00;;;;;;;18.05;6.50;;;13.30;99.90;;;;;;5040912;28;20489;-69
2021/06/22 01:07:26;;;;;;;11.77;5.47;;;13.30;99.90;;;;;;5039261;28;20040;-70
2021/06/22 01:09:54;;;;;;;19.90;6.03;;;13.30;99.90;;;;;;5036423;28;20427;-69
2021/06/22 01:12:19;;;;;;;21.17;9.35;;;13.30;99.90;;;;;;5031034;28;20040;-69
2021/06/22 01:14:45;;;;;;;17.08;12.05;;;13.40;99.90;;;;;;5038025;28;20033;-68
2021/06/22 01:17:11;;;;;;;23.45;14.40;;;13.40;99.90;;;;;;5038064;28;20035;-68
2021/06/22 01:19:37;;;;;;;25.70;14.95;;;13.50;99.90;;;;;;5034461;28;20010;-68
2021/06/22 01:22:04;;;;;;;20.65;11.10;;;13.60;99.90;;;;;;5042233;28;20049;-68
2021/06/22 01:24:29;;;;;;;15.20;7.13;;;13.70;99.90;;;;;;5038253;28;20555;-69
2021/06/22 01:26:58;;;;;;;15.38;6.05;;;13.60;99.90;;;;;;5035145;28;20029;-68
2021/06/22 01:29:25;;;;;;;10.73;5.32;;;13.60;99.90;;;;;;5035303;28;20029;-69
2021/06/22 01:31:55;;;;;;;11.73;5.38;;;13.50;99.90;;;;;;5039395;28;20086;-68
2021/06/22 01:34:22;;;;;;;11.15;5.22;;;13.40;99.90;;;;;;5040157;28;20021;-69
2021/06/22 01:36:48;;;;;;;10.25;4.75;;;13.50;99.90;;;;;;5041405;28;20349;-68
2021/06/22 01:39:14;;;;;;;15.93;5.32;;;13.40;99.90;;;;;;5033145;28;20034;-70
2021/06/22 01:41:40;;;;;;;7.35;4.93;;;13.40;99.90;;;;;;5045337;28;20501;-69
2021/06/22 01:44:06;;;;;;;14.40;5.15;;;13.50;99.90;;;;;;5033801;28;20032;-70
2021/06/22 01:46:32;;;;;;;12.15;5.00;;;13.60;99.90;;;;;;5037356;28;20037;-69
2021/06/22 01:48:57;;;;;;;12.73;4.65;;;13.60;99.90;;;;;;5034857;28;20120;-68
2021/06/22 01:51:23;;;;;;;11.93;5.07;;;13.60;99.90;;;;;;5032119;28;20022;-68
2021/06/22 01:53:57;;;;;;;17.55;8.68;;;13.50;99.90;;;;;;5032708;28;20545;-68
2021/06/22 01:56:25;;;;;;;21.90;11.48;;;13.40;99.90;;;;;;5032850;28;20025;-69
2021/06/22 01:58:51;;;;;;;14.35;6.95;;;13.30;99.90;;;;;;5054148;28;20093;-69
2021/06/22 02:01:17;;;;;;;12.45;6.03;;;13.30;99.90;;;;;;5042884;28;20059;-69
2021/06/22 02:03:42;;;;;;;16.58;6.05;;;13.20;99.90;;;;;;5047308;28;20051;-69
2021/06/22 02:06:08;;;;;;;14.50;6.57;;;13.20;99.90;;;;;;5044992;28;20025;-69
2021/06/22 02:08:34;;;;;;;15.13;6.25;;;13.20;99.90;;;;;;5043687;28;20025;-68
2021/06/22 02:11:00;;;;;;;12.82;5.68;;;13.10;99.90;;;;;;5040251;28;20078;-68
2021/06/22 02:13:27;;;;;;;12.45;5.88;;;13.00;99.90;;;;;;5044211;28;20132;-68
2021/06/22 02:15:53;;;;;;;12.05;5.40;;;13.00;99.90;;;;;;5043318;28;20032;-68
2021/06/22 02:18:19;;;;;;;10.35;6.15;;;13.00;99.90;;;;;;5045487;28;20013;-68
2021/06/22 02:20:44;;;;;;;15.27;6.30;;;13.10;99.90;;;;;;5041559;28;20489;-69
2021/06/22 02:23:11;;;;;;;11.32;5.43;;;13.10;99.90;;;;;;5042616;28;20032;-68
2021/06/22 02:25:36;;;;;;;14.50;6.03;;;13.10;99.90;;;;;;5044923;28;20041;-68
2021/06/22 02:28:06;;;;;;;11.43;5.80;;;13.00;99.90;;;;;;5045379;28;20029;-68
2021/06/22 02:30:33;;;;;;;9.38;5.40;;;13.00;99.90;;;;;;5035485;28;20062;-68
2021/06/22 02:32:59;;;;;;;10.70;5.95;;;13.00;99.90;;;;;;5039979;28;20029;-68
2021/06/22 02:35:25;;;;;;;13.52;6.28;;;13.10;99.90;;;;;;5045294;28;20144;-68
2021/06/22 02:37:52;;;;;;;23.80;8.57;;;13.20;99.90;;;;;;5044163;28;20070;-68
2021/06/22 02:40:18;;;;;;;20.90;12.48;;;13.20;99.90;;;;;;5044981;28;20013;-69
2021/06/22 02:42:44;;;;;;;20.40;10.18;;;13.10;99.90;;;;;;5039534;28;20048;-67
2021/06/22 02:45:10;;;;;;;15.52;5.93;;;13.00;99.90;;;;;;5044722;28;20021;-68
2021/06/22 02:47:36;;;;;;;15.00;7.00;;;12.90;99.90;;;;;;5039938;28;20031;-68
2021/06/22 02:50:04;;;;;;;11.20;6.10;;;13.00;99.90;;;;;;5041537;28;20080;-68
2021/06/22 02:52:30;;;;;;;11.10;6.22;;;13.10;99.90;;;;;;5043219;28;20082;-69
2021/06/22 02:54:55;;;;;;;18.25;6.10;;;13.10;99.90;;;;;;5036070;28;20029;-68
2021/06/22 02:57:21;;;;;;;13.23;5.82;;;13.10;99.90;;;;;;5042719;28;20033;-67
2021/06/22 02:59:47;;;;;;;9.32;6.40;;;13.10;99.90;;;;;;5041364;28;20021;-67
2021/06/22 03:02:12;;;;;;;10.50;6.18;;;13.00;99.90;;;;;;5038081;28;20041;-68
2021/06/22 03:04:38;;;;;;;13.57;6.32;;;13.00;99.90;;;;;;5047175;28;20025;-71
2021/06/22 03:07:04;;;;;;;14.52;6.53;;;13.10;99.90;;;;;;5047794;28;20033;-69
2021/06/22 03:09:30;;;;;;;14.27;6.05;;;13.20;99.90;;;;;;5042014;28;20029;-68
2021/06/22 03:11:57;;;;;;;12.63;6.15;;;13.00;99.90;;;;;;5038770;28;20087;-69
2021/06/22 03:14:23;;;;;;;14.02;7.93;;;12.90;99.90;;;;;;5043793;28;20032;-68
2021/06/22 03:16:49;;;;;;;10.43;5.82;;;12.80;99.90;;;;;;5043428;28;20116;-69
2021/06/22 03:19:15;;;;;;;13.75;6.70;;;12.80;99.90;;;;;;5043598;28;20021;-69
2021/06/22 03:21:43;;;;;;;10.63;6.25;;;12.80;99.90;;;;;;5041854;28;20024;-67
2021/06/22 03:24:19;;;;;;;11.55;6.65;;;12.80;99.90;;;;;;5037892;28;20044;-68
2021/06/22 03:26:46;;;;;;;19.20;7.55;;;12.80;99.90;;;;;;5039435;28;20367;-68
2021/06/22 03:29:12;;;;;;;14.32;8.13;;;12.70;99.90;;;;;;5035861;28;20467;-68
2021/06/22 03:31:38;;;;;;;21.48;7.75;;;12.70;99.90;;;;;;5041278;28;20036;-68
2021/06/22 03:34:04;;;;;;;13.82;6.95;;;12.70;99.90;;;;;;5037424;28;20021;-69
2021/06/22 03:36:30;;;;;;;13.02;6.13;;;12.80;99.90;;;;;;5049648;28;20162;-68
2021/06/22 03:38:56;;;;;;;15.40;7.40;;;12.90;99.90;;;;;;5041551;28;20375;-69
2021/06/22 03:41:22;;;;;;;17.92;6.38;;;12.90;99.90;;;;;;5036693;28;20040;-68
2021/06/22 03:43:48;;;;;;;18.63;7.53;;;12.90;99.90;;;;;;5044616;28;20009;-69
2021/06/22 03:46:19;;;;;;;15.73;6.88;;;13.00;99.90;;;;;;5044058;28;20385;-68
2021/06/22 03:48:48;;;;;;;12.60;7.05;;;13.00;99.90;;;;;;5066089;28;20029;-68
2021/06/22 03:51:13;;;;;;;16.10;6.72;;;13.00;99.90;;;;;;5032852;28;20533;-70
2021/06/22 03:53:41;;;;;;;8.48;6.10;;;13.00;99.90;;;;;;5041122;28;20112;-69
2021/06/22 03:56:08;;;;;;;14.48;7.05;;;13.10;99.90;;;;;;5038919;28;20401;-69
2021/06/22 03:58:34;;;;;;;10.25;6.53;;;13.10;99.90;;;;;;5042786;28;20032;-69
2021/06/22 04:01:00;;;;;;;16.05;7.45;;;13.20;99.90;;;;;;5044445;28;20087;-68
2021/06/22 04:03:27;;;;;;;10.90;6.43;;;13.20;99.90;;;;;;5036746;28;20092;-66
2021/06/22 04:05:52;;;;;;;12.27;5.90;;;13.20;99.90;;;;;;5042448;28;20513;-68
2021/06/22 04:08:18;;;;;;;15.13;6.05;;;13.20;99.90;;;;;;5035420;28;20049;-68
2021/06/22 04:10:43;;;;;;;11.73;5.43;;;13.20;99.90;;;;;;5032895;28;20035;-69
2021/06/22 04:13:09;;;;;;;10.88;5.60;;;13.30;99.90;;;;;;5039568;28;20040;-68
2021/06/22 04:15:35;;;;;;;8.07;5.20;;;13.40;99.90;;;;;;5055407;28;20104;-68
2021/06/22 04:18:06;;;;;;;11.93;6.03;;;13.40;99.90;;;;;;5037825;28;20022;-68
2021/06/22 04:20:32;;;;;;;10.00;5.63;;;13.30;99.90;;;;;;5038625;28;20021;-68
2021/06/22 04:22:58;;;;;;;9.35;4.80;;;13.30;99.90;;;;;;5043662;28;20508;-69
2021/06/22 04:25:23;;;;;;;16.60;6.15;;;13.40;99.90;;;;;;5041314;28;20033;-68
2021/06/22 04:27:50;;;;;;;11.07;5.10;;;13.40;99.90;;;;;;5038500;28;20094;-69
2021/06/22 04:30:16;;;;;;;12.85;5.68;;;13.40;99.90;;;;;;5042516;28;20036;-68
2021/06/22 04:32:42;;;;;;;16.88;6.05;;;13.40;99.90;;;;;;5042782;28;20174;-68
2021/06/22 04:35:08;;;;;;;8.75;5.25;;;13.50;99.90;;;;;;5043051;28;20120;-69
2021/06/22 04:37:34;;;;;;;14.45;6.00;;;13.50;99.90;;;;;;5034599;28;20025;-69
2021/06/22 04:40:00;;;;;;;16.50;5.75;;;13.50;99.90;;;;;;5039155;28;20033;-69
2021/06/22 04:42:25;;;;;;;9.45;5.88;;;13.60;99.90;;;;;;5034282;28;20040;-67
2021/06/22 04:44:51;;;;;;;20.05;6.50;;;13.70;99.90;;;;;;5045621;28;20025;-69
2021/06/22 04:47:17;;;;;;;11.68;4.90;;;13.70;99.90;;;;;;5047792;28;20024;-68
2021/06/22 04:49:42;;;;;;;15.73;5.55;;;13.80;99.90;;;;;;5040987;28;20393;-68
2021/06/22 04:52:11;;;;;;;15.05;7.57;;;13.80;99.90;;;;;;5039131;28;20025;-69
2021/06/22 04:54:37;;;;;;;14.85;6.90;;;13.80;99.90;;;;;;5041772;28;20091;-68
2021/06/22 04:57:07;;;;;;;17.27;7.25;;;13.80;99.90;;;;;;5042004;28;20516;-70
2021/06/22 04:59:34;;;;;;;12.15;4.90;;;13.90;99.90;;;;;;5046336;28;20018;-68
2021/06/22 05:02:00;;;;;;;12.57;4.80;;;13.90;99.90;;;;;;5045756;28;20072;-69
2021/06/22 05:04:26;;;;;;;15.15;5.22;;;13.90;99.90;;;;;;5046352;28;20037;-69
2021/06/22 05:06:51;;;;;;;13.20;4.57;;;13.90;99.90;;;;;;5047871;28;20068;-70
2021/06/22 05:09:17;;;;;;;14.70;4.68;;;13.80;99.90;;;;;;5044657;28;20079;-68
2021/06/22 05:11:42;;;;;;;18.00;5.28;;;13.80;99.90;;;;;;5041201;28;20538;-70
2021/06/22 05:14:08;;;;;;;17.63;6.90;;;13.90;99.90;;;;;;5045346;28;20243;-69
2021/06/22 05:16:34;;;;;;;12.18;4.88;;;13.90;99.90;;;;;;5047686;28;20025;-70
2021/06/22 05:18:59;;;;;;;9.85;4.63;;;13.90;99.90;;;;;;5042072;28;20117;-70
2021/06/22 05:21:25;;;;;;;15.10;5.63;;;13.80;99.90;;;;;;5047759;28;20359;-69
2021/06/22 05:23:51;;;;;;;12.07;5.72;;;13.90;99.90;;;;;;5041853;28;20144;-69
2021/06/22 05:26:16;;;;;;;20.58;5.53;;;14.00;99.90;;;;;;5057201;28;20112;-69
2021/06/22 05:28:42;;;;;;;20.40;5.53;;;14.20;99.90;;;;;;5051036;28;21395;-68
2021/06/22 05:31:07;;;;;;;12.98;5.03;;;14.10;99.90;;;;;;5050340;28;20029;-69
2021/06/22 05:33:33;;;;;;;9.00;5.32;;;14.10;99.90;;;;;;5051307;28;20103;-69
2021/06/22 05:35:59;;;;;;;9.52;5.60;;;14.10;99.90;;;;;;5044210;28;20017;-68
2021/06/22 05:38:24;;;;;;;14.27;6.10;;;14.20;99.90;;;;;;5039129;28;20234;-70
2021/06/22 05:40:50;;;;;;;15.88;6.22;;;14.20;99.90;;;;;;5042907;28;20024;-71
2021/06/22 05:43:16;;;;;;;9.70;6.45;;;14.20;99.90;;;;;;5043084;28;20062;-66
2021/06/22 05:45:41;;;;;;;11.35;6.93;;;14.20;99.90;;;;;;5044155;28;20020;-68
2021/06/22 05:48:07;;;;;;;19.02;7.07;;;14.10;99.90;;;;;;5043752;28;20021;-69
2021/06/22 05:50:33;;;;;;;14.45;7.50;;;14.20;99.90;;;;;;5037861;28;20170;-68
2021/06/22 05:52:58;;;;;;;12.27;6.90;;;14.20;99.90;;;;;;5040531;28;20021;-68
2021/06/22 05:55:24;;;;;;;22.13;8.00;;;14.20;99.90;;;;;;5044329;23;20057;-64
2021/06/22 05:57:54;;;;;;;16.02;8.65;;;14.10;99.90;;;;;;5043762;28;20017;-63
2021/06/22 06:00:23;;;;;;;23.48;10.38;;;14.20;99.90;;;;;;5044681;28;20041;-64
2021/06/22 06:02:50;;;;;;;21.35;9.98;;;14.30;99.90;;;;;;5037729;28;20070;-64
2021/06/22 06:05:16;;;;;;;21.30;10.85;;;14.30;99.90;;;;;;5025322;28;20388;-65
2021/06/22 06:07:42;;;;;;;16.70;10.07;;;14.30;99.90;;;;;;5027841;28;20022;-64
2021/06/22 06:10:10;;;;;;;21.77;11.48;;;14.40;99.90;;;;;;5027434;28;20025;-64
2021/06/22 06:12:35;;;;;;;20.23;12.45;;;14.30;99.90;;;;;;5027408;28;20040;-65
2021/06/22 06:15:01;;;;;;;23.23;12.45;;;14.30;99.90;;;;;;5025077;28;20033;-63
2021/06/22 06:17:26;;;;;;;27.48;14.15;;;14.20;99.90;;;;;;5024562;28;20052;-64
2021/06/22 06:19:52;;;;;;;25.58;13.48;;;14.20;99.90;;;;;;5024477;28;20029;-64
2021/06/22 06:22:19;;;;;;;23.92;12.85;;;14.20;99.90;;;;;;5024192;28;20029;-64
2021/06/22 06:24:46;;;;;;;22.73;13.00;;;14.20;99.90;;;;;;5025807;28;20514;-64
2021/06/22 06:27:15;;;;;;;30.23;13.98;;;14.20;99.90;;;;;;5016700;28;20538;-63
2021/06/22 06:32:19;;;;;;;22.88;13.25;;;14.10;99.90;;;;;;5024039;28;20129;-64
2021/06/22 06:34:45;;;;;;;25.90;12.38;;;14.20;99.90;;;;;;5019072;28;20113;-63
2021/06/22 06:37:11;;;;;;;30.20;13.63;;;14.30;99.90;;;;;;5015020;28;20104;-64
2021/06/22 06:39:36;;;;;;;31.13;14.52;;;14.40;99.90;;;;;;5017680;28;20025;-63
2021/06/22 06:42:03;;;;;;;24.30;13.45;;;14.20;99.90;;;;;;5021450;28;20503;-63
2021/06/22 06:44:29;;;;;;;25.40;14.45;;;14.30;99.90;;;;;;5025378;28;20101;-63
2021/06/22 06:46:54;;;;;;;26.77;13.90;;;14.20;99.90;;;;;;5019665;28;20108;-63
2021/06/22 06:49:20;;;;;;;31.77;14.95;;;14.30;99.90;;;;;;5020951;28;20037;-63
2021/06/22 06:51:45;;;;;;;22.50;13.27;;;14.40;99.90;;;;;;5020975;28;20088;-62
2021/06/22 06:54:11;;;;;;;23.15;13.32;;;14.30;99.90;;;;;;5018670;28;20038;-64
2021/06/22 06:56:36;;;;;;;31.13;13.82;;;14.40;99.90;;;;;;5018771;28;20030;-64
2021/06/22 06:59:02;;;;;;;22.67;13.43;;;14.40;99.90;;;;;;5020574;28;20048;-63
2021/06/22 07:01:28;;;;;;;26.95;14.70;;;14.50;99.90;;;;;;5027191;28;20067;-64
2021/06/22 07:03:55;;;;;;;23.48;11.88;;;14.40;99.90;;;;;;5020776;28;20093;-64
2021/06/22 07:06:21;;;;;;;31.55;13.80;;;14.50;99.90;;;;;;5019607;28;20619;-64
2021/06/22 07:08:46;;;;;;;25.00;13.05;;;14.60;99.90;;;;;;5019765;28;20695;-64
2021/06/22 07:11:12;;;;;;;25.40;14.18;;;14.50;99.90;;;;;;5019425;28;20026;-65
2021/06/22 07:13:38;;;;;;;23.83;14.00;;;14.60;99.90;;;;;;5023196;28;20334;-63
2021/06/22 07:16:04;;;;;;;38.25;15.98;;;14.70;99.90;;;;;;5020756;28;20546;-64
2021/06/22 07:18:31;;;;;;;24.58;14.57;;;14.60;99.90;;;;;;5027251;28;20031;-63
2021/06/22 07:20:57;;;;;;;34.72;16.55;;;14.60;99.90;;;;;;5017318;28;20395;-63
2021/06/22 07:23:24;;;;;;;26.55;13.82;;;14.50;99.90;;;;;;5018623;28;20032;-62
2021/06/22 07:25:49;;;;;;;26.70;14.40;;;14.50;99.90;;;;;;5018540;28;20041;-66
2021/06/22 07:28:15;;;;;;;27.83;14.45;;;14.50;99.90;;;;;;5023922;28;20399;-64
2021/06/22 07:30:41;;;;;;;22.35;13.00;;;14.50;99.90;;;;;;5027182;28;20037;-63
2021/06/22 07:33:06;;;;;;;25.42;12.75;;;14.60;99.90;;;;;;5022604;28;20090;-64
2021/06/22 07:35:33;;;;;;;29.23;14.70;;;14.60;99.90;;;;;;5025408;28;20022;-64
2021/06/22 07:37:59;;;;;;;23.75;14.10;;;14.70;99.90;;;;;;5023469;28;20022;-63
2021/06/22 07:40:25;;;;;;;21.70;15.60;;;14.70;99.90;;;;;;5020657;28;20040;-64
2021/06/22 07:42:52;;;;;;;27.02;13.90;;;14.60;99.90;;;;;;5019375;28;20034;-64
2021/06/22 07:45:18;;;;;;;28.75;14.93;;;14.70;99.90;;;;;;5021034;28;20032;-64
2021/06/22 07:47:44;;;;;;;31.67;14.75;;;14.90;99.90;;;;;;5021427;28;20029;-64
2021/06/22 07:50:10;;;;;;;29.67;14.85;;;15.00;99.90;;;;;;5023665;28;20053;-64
2021/06/22 07:52:36;;;;;;;25.00;14.95;;;14.90;99.90;;;;;;5023273;28;20128;-63
2021/06/22 07:55:02;;;;;;;31.83;15.48;;;15.00;99.90;;;;;;5020323;28;20128;-63
2021/06/22 07:57:27;;;;;;;23.15;14.90;;;14.80;99.90;;;;;;5020409;28;20028;-65
2021/06/22 07:59:53;;;;;;;26.25;15.07;;;14.90;99.90;;;;;;5021102;28;20022;-62
2021/06/22 08:02:19;;;;;;;28.63;15.70;;;15.10;99.90;;;;;;5024503;28;20026;-63
2021/06/22 08:04:44;;;;;;;27.17;14.45;;;15.10;99.90;;;;;;5018100;28;20402;-64
2021/06/22 08:07:10;;;;;;;30.02;14.80;;;15.30;99.90;;;;;;5017096;28;20041;-64
2021/06/22 08:09:36;;;;;;;23.17;14.68;;;15.30;99.90;;;;;;5018552;28;20555;-64
2021/06/22 08:12:02;;;;;;;42.55;15.68;;;15.40;99.90;;;;;;5021147;28;20099;-64
2021/06/22 08:14:28;;;;;;;31.75;15.95;;;15.40;99.90;;;;;;5028018;28;20036;-63
2021/06/22 08:16:54;;;;;;;32.35;14.98;;;15.30;99.90;;;;;;5026928;28;20021;-65
2021/06/22 08:19:19;;;;;;;27.58;15.65;;;15.40;99.90;;;;;;5029135;28;20013;-66
2021/06/22 08:21:45;;;;;;;37.50;16.15;;;15.50;99.90;;;;;;5030191;28;20044;-63
2021/06/22 08:24:10;;;;;;;23.10;14.65;;;15.50;99.90;;;;;;5030643;28;20036;-63
2021/06/22 08:26:36;;;;;;;31.70;15.35;;;15.40;99.90;;;;;;5031879;28;20033;-63
2021/06/22 08:29:03;;;;;;;28.83;15.23;;;15.60;99.90;;;;;;5032002;28;20045;-62
2021/06/22 08:31:29;;;;;;;24.52;15.32;;;15.40;99.90;;;;;;5028834;28;20025;-64
2021/06/22 08:33:54;;;;;;;24.63;13.90;;;15.40;99.90;;;;;;5032766;28;20100;-64
2021/06/22 08:36:20;;;;;;;27.27;14.73;;;15.40;99.90;;;;;;5024193;28;20173;-66
2021/06/22 08:38:46;;;;;;;26.67;14.00;;;15.50;99.90;;;;;;5024597;28;20026;-63
2021/06/22 08:41:13;;;;;;;21.27;14.43;;;15.60;99.90;;;;;;5024340;28;20038;-64
2021/06/22 08:43:40;;;;;;;33.30;14.65;;;15.50;99.90;;;;;;5024920;28;20097;-63
2021/06/22 08:46:07;;;;;;;21.40;14.88;;;15.40;99.90;;;;;;5026173;28;20025;-63
2021/06/22 08:48:33;;;;;;;29.60;14.73;;;15.40;99.90;;;;;;5021573;28;20029;-64
2021/06/22 08:50:59;;;;;;;29.92;14.40;;;15.50;99.90;;;;;;5024090;28;20026;-64
2021/06/22 08:53:25;;;;;;;22.40;14.45;;;15.40;99.90;;;;;;5030987;28;20216;-64
2021/06/22 08:55:50;;;;;;;21.85;13.30;;;15.40;99.90;;;;;;5026456;28;20434;-64
2021/06/22 08:58:18;;;;;;;19.83;12.25;;;15.30;99.90;;;;;;5024392;28;20380;-63
2021/06/22 09:00:46;;;;;;;26.30;14.20;;;15.60;99.90;;;;;;5022673;28;20561;-64
2021/06/22 09:03:17;;;;;;;24.85;13.73;;;15.90;99.90;;;;;;5023264;28;20017;-64
2021/06/22 09:05:44;;;;;;;23.90;13.70;;;15.90;99.90;;;;;;5027165;28;20617;-64
2021/06/22 09:08:22;;;;;;;23.20;14.27;;;15.80;99.90;;;;;;5028976;28;20025;-64
2021/06/22 09:10:51;;;;;;;22.67;13.35;;;15.90;99.90;;;;;;5022257;28;20037;-64
2021/06/22 09:13:22;;;;;;;20.95;13.40;;;16.10;99.90;;;;;;5027626;28;20025;-64
2021/06/22 09:15:50;;;;;;;18.93;12.33;;;16.40;99.90;;;;;;5029182;28;20045;-64
2021/06/22 09:18:37;;;;;;;19.08;11.90;;;16.70;99.90;;;;;;5024608;28;20026;-63
2021/06/22 09:21:14;;;;;;;25.33;12.43;;;16.80;99.90;;;;;;5027968;28;20014;-65
2021/06/22 09:23:41;;;;;;;20.13;11.32;;;16.60;99.90;;;;;;5028259;28;20085;-64
2021/06/22 09:26:20;;;;;;;26.70;13.32;;;16.50;99.90;;;;;;5022482;28;20026;-65
2021/06/22 09:28:47;;;;;;;24.27;12.55;;;16.60;99.90;;;;;;5018746;28;20026;-63
2021/06/22 09:31:21;;;;;;;20.77;12.18;;;16.70;99.90;;;;;;5023704;28;20083;-66
2021/06/22 09:33:54;;;;;;;15.85;11.13;;;17.00;99.90;;;;;;5025799;28;20033;-64
2021/06/22 09:36:26;;;;;;;17.98;10.15;;;16.90;99.90;;;;;;5039283;28;20033;-64
2021/06/22 09:38:53;;;;;;;;;;;16.80;99.90;;;;;;5041010;28;20361;-64
2021/06/22 09:41:23;;;;;;;19.58;9.98;;;16.80;99.90;;;;;;5039899;28;19967;-64
2021/06/22 09:44:10;;;;;;;14.70;9.52;;;16.80;99.90;;;;;;5027147;28;20064;-63
2021/06/22 09:46:38;;;;;;;14.52;10.05;;;16.70;99.90;;;;;;5022293;28;20025;-63
2021/06/22 09:49:18;;;;;;;23.38;10.85;;;16.70;99.90;;;;;;5023615;28;20365;-64
2021/06/22 09:51:58;;;;;;;15.18;10.40;;;16.80;99.90;;;;;;5019515;28;20034;-65
2021/06/22 09:54:32;;;;;;;16.13;9.30;;;17.00;99.90;;;;;;5023380;28;20014;-65
2021/06/22 09:57:14;;;;;;;15.13;9.45;;;17.30;99.90;;;;;;5045238;28;20016;-64
2021/06/22 09:59:52;;;;;;;16.58;9.68;;;17.20;99.90;;;;;;5047998;28;20022;-64
2021/06/22 10:02:18;;;;;;;19.35;10.25;;;17.40;99.90;;;;;;5036745;28;20441;-64
2021/06/22 10:04:46;;;;;;;16.30;8.77;;;17.60;99.90;;;;;;5018954;28;20543;-64
2021/06/22 10:07:17;;;;;;;15.18;9.18;;;17.80;99.90;;;;;;5018838;28;20032;-63
2021/06/22 10:09:49;;;;;;;14.85;9.15;;;17.90;99.90;;;;;;5029920;28;20025;-63
2021/06/22 10:12:16;;;;;;;19.23;9.88;;;17.60;99.90;;;;;;5022646;28;20496;-64
2021/06/22 10:14:44;;;;;;;16.63;8.88;;;17.20;99.90;;;;;;5028636;28;20025;-64
2021/06/22 10:17:17;;;;;;;17.33;9.57;;;17.10;99.90;;;;;;5042264;28;20147;-66
2021/06/22 10:19:45;;;;;;;16.55;9.65;;;17.00;99.90;;;;;;5035305;28;20245;-64
2021/06/22 10:22:11;;;;;;;13.43;8.77;;;17.10;99.90;;;;;;5026082;28;20026;-65
2021/06/22 10:24:43;;;;;;;16.70;9.88;;;17.20;99.90;;;;;;5041510;28;20028;-65
2021/06/22 10:27:10;;;;;;;17.53;8.60;;;17.30;99.90;;;;;;5034871;28;20030;-64
2021/06/22 10:29:36;;;;;;;14.27;7.97;;;17.50;99.90;;;;;;5024606;28;20032;-64
2021/06/22 10:32:02;;;;;;;12.70;7.95;;;17.60;99.90;;;;;;5026424;28;20030;-63
2021/06/22 10:34:29;;;;;;;12.95;8.23;;;17.50;99.90;;;;;;5024400;28;20275;-65
2021/06/22 10:37:22;;;;;;;15.38;7.15;;;17.50;99.90;;;;;;5026128;28;20049;-64
2021/06/22 10:40:06;;;;;;;11.50;5.45;;;17.30;99.90;;;;;;5034080;28;20026;-64
2021/06/22 10:42:43;;;;;;;12.25;6.38;;;17.30;99.90;;;;;;5033724;28;20026;-63
2021/06/22 10:45:09;;;;;;;10.55;5.15;;;17.30;99.90;;;;;;5022215;28;20512;-64
2021/06/22 10:47:38;;;;;;;8.52;4.82;;;17.40;99.90;;;;;;5021159;28;20033;-64
2021/06/22 10:50:14;;;;;;;9.50;4.22;;;17.30;99.90;;;;;;5033764;28;20029;-63
2021/06/22 10:52:46;;;;;;;9.90;5.55;;;17.30;99.90;;;;;;5026685;28;20017;-66
2021/06/22 10:55:44;;;;;;;11.80;5.15;;;17.30;99.90;;;;;;5031947;28;20025;-63
2021/06/22 10:58:14;;;;;;;11.77;5.60;;;17.40;99.90;;;;;;5026079;28;20132;-64
2021/06/22 11:00:49;;;;;;;9.95;5.38;;;17.40;99.90;;;;;;5018260;28;20024;-64
2021/06/22 11:03:24;;;;;;;15.82;5.47;;;17.30;99.90;;;;;;5021243;28;20026;-66
2021/06/22 11:06:03;;;;;;;12.75;5.65;;;17.20;99.90;;;;;;5025514;28;20025;-64
2021/06/22 11:08:33;;;;;;;9.35;5.80;;;17.10;99.90;;;;;;5027184;28;20052;-65
2021/06/22 11:10:59;;;;;;;13.98;5.43;;;17.20;99.90;;;;;;5027869;28;20037;-66
2021/06/22 11:13:36;;;;;;;15.55;5.10;;;17.30;99.90;;;;;;5027436;28;20021;-64
2021/06/22 11:16:07;;;;;;;14.95;5.38;;;17.40;99.90;;;;;;5025410;28;20467;-65
2021/06/22 11:18:51;;;;;;;15.52;5.63;;;17.40;99.90;;;;;;5026875;28;20028;-64
2021/06/22 11:21:19;;;;;;;11.05;4.65;;;17.40;99.90;;;;;;5022697;28;20014;-66
2021/06/22 11:23:56;;;;;;;15.57;6.10;;;17.20;99.90;;;;;;5027659;28;20032;-66
2021/06/22 11:26:22;;;;;;;7.43;4.75;;;17.40;99.90;;;;;;5027357;28;20034;-65
2021/06/22 11:28:56;;;;;;;7.53;4.57;;;17.60;99.90;;;;;;5021426;28;20078;-66
2021/06/22 11:31:45;;;;;;;10.35;4.53;;;17.60;99.90;;;;;;5013215;28;20030;-65
2021/06/22 11:34:20;;;;;;;8.40;5.05;;;17.50;99.90;;;;;;5018020;28;20576;-65
2021/06/22 11:36:51;;;;;;;10.25;5.18;;;17.50;99.90;;;;;;5021465;28;20443;-64
2021/06/22 11:39:31;;;;;;;11.27;5.53;;;17.60;99.90;;;;;;5018976;28;20029;-65
2021/06/22 11:42:09;;;;;;;14.25;5.32;;;17.60;99.90;;;;;;5016728;28;20045;-66
2021/06/22 11:44:42;;;;;;;9.57;4.55;;;17.70;99.90;;;;;;5019522;28;20026;-64
2021/06/22 11:47:31;;;;;;;10.85;5.45;;;17.70;99.90;;;;;;5022115;28;20032;-65
2021/06/22 11:50:01;;;;;;;9.27;4.95;;;17.70;99.90;;;;;;5017103;28;20045;-63
2021/06/22 11:52:35;;;;;;;11.35;5.18;;;17.80;99.90;;;;;;5018061;28;20030;-65
2021/06/22 11:55:02;;;;;;;9.82;4.85;;;17.90;99.90;;;;;;5044739;23;20067;-74
2021/06/22 11:57:30;;;;;;;11.48;4.95;;;18.00;99.90;;;;;;5076127;28;20029;-74
2021/06/22 11:59:58;;;;;;;13.30;5.13;;;18.00;99.90;;;;;;5065286;28;20031;-75
2021/06/22 12:02:24;;;;;;;17.23;6.75;;;17.90;99.90;;;;;;5071236;28;20024;-75
2021/06/22 12:04:50;;;;;;;16.20;7.22;;;17.80;99.90;;;;;;5074018;28;20033;-74
2021/06/22 12:07:17;;;;;;;16.65;6.68;;;17.60;99.90;;;;;;5076905;28;20088;-74
2021/06/22 12:09:46;;;;;;;16.08;6.70;;;17.70;99.90;;;;;;5080154;28;20025;-73
2021/06/22 12:12:13;;;;;;;15.00;5.47;;;17.90;99.90;;;;;;5072497;28;20040;-73
2021/06/22 12:14:44;;;;;;;10.80;5.10;;;18.00;99.90;;;;;;5080292;28;20076;-75
2021/06/22 12:17:16;;;;;;;13.75;5.57;;;17.90;99.90;;;;;;5086864;28;20013;-74
2021/06/22 12:19:46;;;;;;;12.85;5.80;;;17.90;99.90;;;;;;5076925;28;20015;-76
2021/06/22 12:22:15;;;;;;;19.75;5.88;;;17.70;99.90;;;;;;5075166;28;20036;-74
2021/06/22 12:24:45;;;;;;;17.38;5.78;;;17.80;99.90;;;;;;5078265;28;20021;-74
2021/06/22 12:27:11;;;;;;;10.15;5.10;;;17.70;99.90;;;;;;5073621;28;20024;-76
2021/06/22 12:29:39;;;;;;;9.55;5.28;;;17.40;99.90;;;;;;5066702;28;20035;-74
2021/06/22 12:32:07;;;;;;;12.57;5.10;;;17.40;99.90;;;;;;5081156;28;20024;-75
2021/06/22 12:34:38;;;;;;;9.75;5.00;;;17.50;99.90;;;;;;5072337;28;20023;-75
2021/06/22 12:37:16;;;;;;;14.00;6.63;;;17.50;99.90;;;;;;5073027;28;20127;-74
2021/06/22 12:39:43;;;;;;;19.17;6.13;;;17.70;99.90;;;;;;5067583;28;20081;-75
2021/06/22 12:42:11;;;;;;;11.88;5.63;;;17.80;99.90;;;;;;5089114;28;20024;-76